Shashi, China
Current Conditions -  °F | °C
As of 12:00 PM on Saturday 25 Oct 2014 (Local Time) from ZHHH Reporting Station
Clear Clear  
Wind Chill: 81°   Ceiling: Unl
Heat Index: 81°   Visibility: 4mi
Dew Point: 59°   Wind: 7mph
Humidity: 48%   Direction: 200°SSW
Pressure: 30"   Gusts: NA
Location:  30.32°N, 112.23°E
Report Text: ZHHH 250400Z 20003MPS 120V250 6000 NSC 27/15 Q1016 NOSIG
Loading
Personal Weather Stations






























Interactive Weather Map
Tropical Storm Tracking
New forecast layout! Learn more

10-Day Weather Forecast

Advertisements
Track Severe Weather on mobile